sensor_id;sensor_type;location;lat;lon;timestamp;pressure;altitude;pressure_sealevel;temperature;humidity
79285;BME280;68734;50.452;11.636;2023-04-06T00:01:53;95819.38;;;-3.66;78.78
79285;BME280;68734;50.452;11.636;2023-04-06T00:04:18;95818.06;;;-3.70;79.10
79285;BME280;68734;50.452;11.636;2023-04-06T00:06:44;95810.13;;;-3.78;78.07
79285;BME280;68734;50.452;11.636;2023-04-06T00:09:09;95819.03;;;-3.79;78.90
79285;BME280;68734;50.452;11.636;2023-04-06T00:11:35;95820.19;;;-3.82;79.08
79285;BME280;68734;50.452;11.636;2023-04-06T00:14:00;95803.03;;;-3.86;79.17
79285;BME280;68734;50.452;11.636;2023-04-06T00:16:26;95805.16;;;-3.90;79.40
79285;BME280;68734;50.452;11.636;2023-04-06T00:18:51;95818.88;;;-3.86;79.56
79285;BME280;68734;50.452;11.636;2023-04-06T00:21:19;95813.09;;;-3.90;79.71
79285;BME280;68734;50.452;11.636;2023-04-06T00:23:45;95802.88;;;-3.93;79.77
79285;BME280;68734;50.452;11.636;2023-04-06T00:26:10;95807.81;;;-3.98;80.20
79285;BME280;68734;50.452;11.636;2023-04-06T00:28:37;95807.47;;;-4.03;80.26
79285;BME280;68734;50.452;11.636;2023-04-06T00:31:03;95806.13;;;-4.07;79.74
79285;BME280;68734;50.452;11.636;2023-04-06T00:33:28;95801.88;;;-4.16;79.60
79285;BME280;68734;50.452;11.636;2023-04-06T00:35:54;95808.13;;;-4.09;78.91
79285;BME280;68734;50.452;11.636;2023-04-06T00:38:20;95808.78;;;-4.15;78.58
79285;BME280;68734;50.452;11.636;2023-04-06T00:40:46;95804.16;;;-4.22;78.26
79285;BME280;68734;50.452;11.636;2023-04-06T00:43:14;95809.13;;;-4.18;78.48
79285;BME280;68734;50.452;11.636;2023-04-06T00:45:41;95805.16;;;-4.23;79.17
79285;BME280;68734;50.452;11.636;2023-04-06T00:48:07;95802.81;;;-4.26;78.89
79285;BME280;68734;50.452;11.636;2023-04-06T00:50:33;95800.16;;;-4.34;79.83
79285;BME280;68734;50.452;11.636;2023-04-06T00:52:59;95800.16;;;-4.34;80.13
79285;BME280;68734;50.452;11.636;2023-04-06T00:55:26;95799.88;;;-4.31;79.40
79285;BME280;68734;50.452;11.636;2023-04-06T00:57:54;95794.25;;;-4.36;80.03
79285;BME280;68734;50.452;11.636;2023-04-06T01:00:20;95788.78;;;-4.43;80.29
79285;BME280;68734;50.452;11.636;2023-04-06T01:02:46;95796.06;;;-4.36;79.70
79285;BME280;68734;50.452;11.636;2023-04-06T01:05:11;95795.25;;;-4.37;79.92
79285;BME280;68734;50.452;11.636;2023-04-06T01:07:37;95791.91;;;-4.39;80.93
79285;BME280;68734;50.452;11.636;2023-04-06T01:10:03;95798.34;;;-4.42;80.87
79285;BME280;68734;50.452;11.636;2023-04-06T01:12:29;95799.00;;;-4.48;80.62
79285;BME280;68734;50.452;11.636;2023-04-06T01:14:55;95788.94;;;-4.52;80.78
79285;BME280;68734;50.452;11.636;2023-04-06T01:17:20;95791.88;;;-4.55;80.51
79285;BME280;68734;50.452;11.636;2023-04-06T01:19:46;95792.88;;;-4.56;80.25
79285;BME280;68734;50.452;11.636;2023-04-06T01:22:17;95791.22;;;-4.49;80.77
79285;BME280;68734;50.452;11.636;2023-04-06T01:24:43;95791.06;;;-4.48;80.47
79285;BME280;68734;50.452;11.636;2023-04-06T01:27:12;95791.59;;;-4.36;81.04
79285;BME280;68734;50.452;11.636;2023-04-06T01:29:38;95784.34;;;-4.42;80.63
79285;BME280;68734;50.452;11.636;2023-04-06T01:32:06;95780.91;;;-4.34;80.06
79285;BME280;68734;50.452;11.636;2023-04-06T01:34:32;95781.34;;;-4.39;80.28
79285;BME280;68734;50.452;11.636;2023-04-06T01:36:58;95783.53;;;-4.43;80.34
79285;BME280;68734;50.452;11.636;2023-04-06T01:39:23;95768.34;;;-4.57;81.02
79285;BME280;68734;50.452;11.636;2023-04-06T01:41:48;95775.91;;;-4.54;80.60
79285;BME280;68734;50.452;11.636;2023-04-06T01:44:20;95780.16;;;-4.61;81.00
79285;BME280;68734;50.452;11.636;2023-04-06T01:46:45;95776.38;;;-4.67;81.15
79285;BME280;68734;50.452;11.636;2023-04-06T01:49:13;95774.88;;;-4.69;81.73
79285;BME280;68734;50.452;11.636;2023-04-06T01:51:41;95769.78;;;-4.71;81.13
79285;BME280;68734;50.452;11.636;2023-04-06T01:54:06;95766.47;;;-4.73;81.48
79285;BME280;68734;50.452;11.636;2023-04-06T01:56:32;95770.06;;;-4.82;81.24
79285;BME280;68734;50.452;11.636;2023-04-06T01:58:57;95773.50;;;-4.82;82.04
79285;BME280;68734;50.452;11.636;2023-04-06T02:01:23;95765.75;;;-4.83;81.56
79285;BME280;68734;50.452;11.636;2023-04-06T02:03:48;95768.59;;;-4.76;81.32
79285;BME280;68734;50.452;11.636;2023-04-06T02:06:15;95768.78;;;-4.70;80.68
79285;BME280;68734;50.452;11.636;2023-04-06T02:08:41;95773.75;;;-4.67;80.84
79285;BME280;68734;50.452;11.636;2023-04-06T02:11:06;95765.47;;;-4.72;80.73
79285;BME280;68734;50.452;11.636;2023-04-06T02:13:32;95767.78;;;-4.77;80.76
79285;BME280;68734;50.452;11.636;2023-04-06T02:16:00;95773.66;;;-4.83;81.10
79285;BME280;68734;50.452;11.636;2023-04-06T02:18:26;95757.50;;;-4.96;81.49
79285;BME280;68734;50.452;11.636;2023-04-06T02:20:53;95770.66;;;-4.96;81.34
79285;BME280;68734;50.452;11.636;2023-04-06T02:23:18;95775.56;;;-5.02;81.76
79285;BME280;68734;50.452;11.636;2023-04-06T02:25:44;95769.31;;;-5.09;82.11
79285;BME280;68734;50.452;11.636;2023-04-06T02:28:10;95778.69;;;-5.06;82.20
79285;BME280;68734;50.452;11.636;2023-04-06T02:30:35;95769.50;;;-5.02;82.67
79285;BME280;68734;50.452;11.636;2023-04-06T02:33:01;95777.13;;;-4.91;81.90
79285;BME280;68734;50.452;11.636;2023-04-06T02:35:30;95764.91;;;-4.92;81.70
79285;BME280;68734;50.452;11.636;2023-04-06T02:37:56;95774.78;;;-4.94;81.95
79285;BME280;68734;50.452;11.636;2023-04-06T02:40:21;95768.38;;;-4.91;82.11
79285;BME280;68734;50.452;11.636;2023-04-06T02:42:47;95767.69;;;-4.93;81.95
79285;BME280;68734;50.452;11.636;2023-04-06T02:45:12;95767.69;;;-4.93;81.49
79285;BME280;68734;50.452;11.636;2023-04-06T02:47:38;95761.94;;;-4.97;81.83
79285;BME280;68734;50.452;11.636;2023-04-06T02:50:03;95770.81;;;-4.98;82.72
79285;BME280;68734;50.452;11.636;2023-04-06T02:52:29;95756.84;;;-4.98;82.83
79285;BME280;68734;50.452;11.636;2023-04-06T02:54:55;95755.66;;;-5.04;82.49
79285;BME280;68734;50.452;11.636;2023-04-06T02:57:22;95767.69;;;-4.93;82.19
79285;BME280;68734;50.452;11.636;2023-04-06T02:59:50;95749.22;;;-5.02;82.46
79285;BME280;68734;50.452;11.636;2023-04-06T03:02:18;95759.66;;;-4.92;81.90
79285;BME280;68734;50.452;11.636;2023-04-06T03:04:44;95763.75;;;-4.89;82.10
79285;BME280;68734;50.452;11.636;2023-04-06T03:07:09;95760.78;;;-4.94;82.49
79285;BME280;68734;50.452;11.636;2023-04-06T03:09:37;95764.41;;;-4.95;82.58
79285;BME280;68734;50.452;11.636;2023-04-06T03:12:02;95775.59;;;-4.93;82.68
79285;BME280;68734;50.452;11.636;2023-04-06T03:14:28;95766.06;;;-4.94;82.58
79285;BME280;68734;50.452;11.636;2023-04-06T03:16:53;95768.34;;;-4.99;82.02
79285;BME280;68734;50.452;11.636;2023-04-06T03:19:18;95774.63;;;-4.92;81.84
79285;BME280;68734;50.452;11.636;2023-04-06T03:21:44;95769.38;;;-4.92;81.56
79285;BME280;68734;50.452;11.636;2023-04-06T03:24:12;95773.63;;;-4.91;81.53
79285;BME280;68734;50.452;11.636;2023-04-06T03:26:41;95773.34;;;-4.88;81.55
79285;BME280;68734;50.452;11.636;2023-04-06T03:29:06;95780.88;;;-4.93;81.29
79285;BME280;68734;50.452;11.636;2023-04-06T03:31:32;95774.59;;;-5.01;81.02
79285;BME280;68734;50.452;11.636;2023-04-06T03:33:57;95758.78;;;-5.09;81.10
79285;BME280;68734;50.452;11.636;2023-04-06T03:36:22;95772.31;;;-4.95;80.62
79285;BME280;68734;50.452;11.636;2023-04-06T03:38:48;95770.66;;;-5.05;80.78
79285;BME280;68734;50.452;11.636;2023-04-06T03:41:14;95771.28;;;-5.11;81.04
79285;BME280;68734;50.452;11.636;2023-04-06T03:43:42;95778.81;;;-5.16;81.59
79285;BME280;68734;50.452;11.636;2023-04-06T03:46:07;95776.66;;;-5.21;81.63
79285;BME280;68734;50.452;11.636;2023-04-06T03:48:33;95775.31;;;-5.25;81.82
79285;BME280;68734;50.452;11.636;2023-04-06T03:50:58;95778.41;;;-5.29;81.80
79285;BME280;68734;50.452;11.636;2023-04-06T03:53:23;95782.34;;;-5.33;81.92
79285;BME280;68734;50.452;11.636;2023-04-06T03:55:51;95781.84;;;-5.37;81.94
79285;BME280;68734;50.452;11.636;2023-04-06T03:58:17;95782.34;;;-5.33;81.96
79285;BME280;68734;50.452;11.636;2023-04-06T04:00:42;95793.88;;;-5.34;81.85
79285;BME280;68734;50.452;11.636;2023-04-06T04:03:08;95785.16;;;-5.35;82.17
79285;BME280;68734;50.452;11.636;2023-04-06T04:05:33;95786.63;;;-5.32;82.90
79285;BME280;68734;50.452;11.636;2023-04-06T04:08:01;95778.06;;;-5.34;82.65
79285;BME280;68734;50.452;11.636;2023-04-06T04:10:26;95780.19;;;-5.38;82.66
79285;BME280;68734;50.452;11.636;2023-04-06T04:12:52;95781.31;;;-5.41;82.79
79285;BME280;68734;50.452;11.636;2023-04-06T04:15:17;95781.00;;;-5.37;82.88
79285;BME280;68734;50.452;11.636;2023-04-06T04:17:43;95787.59;;;-5.33;82.05
79285;BME280;68734;50.452;11.636;2023-04-06T04:20:12;95780.03;;;-5.36;82.61
79285;BME280;68734;50.452;11.636;2023-04-06T04:22:38;95788.22;;;-5.39;82.57
79285;BME280;68734;50.452;11.636;2023-04-06T04:25:03;95790.19;;;-5.42;82.68
79285;BME280;68734;50.452;11.636;2023-04-06T04:27:29;95784.63;;;-5.38;82.42
79285;BME280;68734;50.452;11.636;2023-04-06T04:29:54;95791.75;;;-5.31;81.54
79285;BME280;68734;50.452;11.636;2023-04-06T04:32:20;95792.19;;;-5.35;82.05
79285;BME280;68734;50.452;11.636;2023-04-06T04:34:45;95787.56;;;-5.42;82.30
79285;BME280;68734;50.452;11.636;2023-04-06T04:37:13;95787.22;;;-5.47;82.22
79285;BME280;68734;50.452;11.636;2023-04-06T04:39:38;95795.13;;;-5.47;82.03
79285;BME280;68734;50.452;11.636;2023-04-06T04:42:04;95782.56;;;-5.53;82.54
79285;BME280;68734;50.452;11.636;2023-04-06T04:44:30;95782.63;;;-5.45;81.58
79285;BME280;68734;50.452;11.636;2023-04-06T04:46:55;95786.25;;;-5.37;80.86
79285;BME280;68734;50.452;11.636;2023-04-06T04:49:21;95782.34;;;-5.33;81.23
79285;BME280;68734;50.452;11.636;2023-04-06T04:51:47;95786.16;;;-5.28;81.01
79285;BME280;68734;50.452;11.636;2023-04-06T04:54:18;95785.53;;;-5.22;80.35
79285;BME280;68734;50.452;11.636;2023-04-06T04:56:44;95772.28;;;-5.04;79.53
79285;BME280;68734;50.452;11.636;2023-04-06T04:59:13;95773.63;;;-4.41;77.30
79285;BME280;68734;50.452;11.636;2023-04-06T05:01:38;95783.38;;;-3.59;74.00
79285;BME280;68734;50.452;11.636;2023-04-06T05:04:03;95783.84;;;-2.83;71.72
79285;BME280;68734;50.452;11.636;2023-04-06T05:06:31;95777.22;;;-2.16;69.00
79285;BME280;68734;50.452;11.636;2023-04-06T05:08:57;95781.44;;;-1.61;66.60
79285;BME280;68734;50.452;11.636;2023-04-06T05:11:22;95787.63;;;-1.16;64.67
79285;BME280;68734;50.452;11.636;2023-04-06T05:13:51;95781.97;;;-0.83;62.94
79285;BME280;68734;50.452;11.636;2023-04-06T05:16:17;95784.78;;;-0.18;61.52
79285;BME280;68734;50.452;11.636;2023-04-06T05:18:42;95792.53;;;0.19;60.00
79285;BME280;68734;50.452;11.636;2023-04-06T05:21:08;95781.41;;;0.31;58.14
79285;BME280;68734;50.452;11.636;2023-04-06T05:23:34;95788.31;;;1.10;56.19
79285;BME280;68734;50.452;11.636;2023-04-06T05:26:00;95783.09;;;1.23;54.19
79285;BME280;68734;50.452;11.636;2023-04-06T05:28:25;95790.41;;;1.14;55.02
79285;BME280;68734;50.452;11.636;2023-04-06T05:30:53;95791.88;;;1.58;53.99
79285;BME280;68734;50.452;11.636;2023-04-06T05:33:19;95795.19;;;1.67;53.57
79285;BME280;68734;50.452;11.636;2023-04-06T05:35:44;95789.53;;;1.97;52.92
79285;BME280;68734;50.452;11.636;2023-04-06T05:38:10;95785.09;;;2.44;51.50
79285;BME280;68734;50.452;11.636;2023-04-06T05:40:38;95791.88;;;3.07;49.43
79285;BME280;68734;50.452;11.636;2023-04-06T05:43:07;95783.44;;;3.10;49.01
79285;BME280;68734;50.452;11.636;2023-04-06T05:45:33;95801.09;;;2.37;50.78
79285;BME280;68734;50.452;11.636;2023-04-06T05:47:58;95798.34;;;1.97;53.25
79285;BME280;68734;50.452;11.636;2023-04-06T05:50:24;95795.88;;;1.96;53.48
79285;BME280;68734;50.452;11.636;2023-04-06T05:52:49;95800.19;;;1.97;53.63
79285;BME280;68734;50.452;11.636;2023-04-06T05:55:18;95800.94;;;1.77;53.64
79285;BME280;68734;50.452;11.636;2023-04-06T05:57:46;95796.22;;;1.31;55.01
79285;BME280;68734;50.452;11.636;2023-04-06T06:00:12;95806.94;;;1.10;56.65
79285;BME280;68734;50.452;11.636;2023-04-06T06:02:37;95807.53;;;1.05;57.26
79285;BME280;68734;50.452;11.636;2023-04-06T06:05:03;95801.06;;;1.14;56.17
79285;BME280;68734;50.452;11.636;2023-04-06T06:07:28;95811.00;;;1.06;56.65
79285;BME280;68734;50.452;11.636;2023-04-06T06:09:58;95799.31;;;0.72;57.09
79285;BME280;68734;50.452;11.636;2023-04-06T06:12:26;95805.94;;;1.11;56.92
79285;BME280;68734;50.452;11.636;2023-04-06T06:14:52;95801.03;;;2.04;53.83
79285;BME280;68734;50.452;11.636;2023-04-06T06:17:19;95794.56;;;2.93;52.91
79285;BME280;68734;50.452;11.636;2023-04-06T06:19:45;95788.00;;;2.63;51.03
79285;BME280;68734;50.452;11.636;2023-04-06T06:22:13;95794.13;;;2.23;53.51
79285;BME280;68734;50.452;11.636;2023-04-06T06:24:38;95790.34;;;1.97;53.42
79285;BME280;68734;50.452;11.636;2023-04-06T06:27:04;95797.56;;;2.10;54.17
79285;BME280;68734;50.452;11.636;2023-04-06T06:29:29;95788.00;;;2.49;52.74
79285;BME280;68734;50.452;11.636;2023-04-06T06:31:55;95786.69;;;2.18;53.97
79285;BME280;68734;50.452;11.636;2023-04-06T06:34:20;95795.75;;;2.17;54.01
79285;BME280;68734;50.452;11.636;2023-04-06T06:36:46;95777.69;;;2.26;52.80
79285;BME280;68734;50.452;11.636;2023-04-06T06:39:11;95787.19;;;2.55;53.02
79285;BME280;68734;50.452;11.636;2023-04-06T06:41:39;95799.91;;;2.93;51.91
79285;BME280;68734;50.452;11.636;2023-04-06T06:44:07;95802.97;;;2.90;51.95
79285;BME280;68734;50.452;11.636;2023-04-06T06:46:32;95804.41;;;2.59;52.37
79285;BME280;68734;50.452;11.636;2023-04-06T06:48:58;95805.63;;;2.50;53.06
79285;BME280;68734;50.452;11.636;2023-04-06T06:51:23;95797.44;;;2.72;53.10
79285;BME280;68734;50.452;11.636;2023-04-06T06:53:49;95799.06;;;2.86;52.30
79285;BME280;68734;50.452;11.636;2023-04-06T06:56:14;95793.34;;;2.76;52.57
79285;BME280;68734;50.452;11.636;2023-04-06T06:58:40;95792.47;;;3.22;51.47
79285;BME280;68734;50.452;11.636;2023-04-06T07:01:08;95795.25;;;3.54;49.87
79285;BME280;68734;50.452;11.636;2023-04-06T07:03:33;95797.94;;;3.54;50.82
79285;BME280;68734;50.452;11.636;2023-04-06T07:05:59;95790.88;;;2.68;51.95
79285;BME280;68734;50.452;11.636;2023-04-06T07:08:24;95791.22;;;2.18;53.85
79285;BME280;68734;50.452;11.636;2023-04-06T07:10:52;95801.56;;;1.79;55.87
79285;BME280;68734;50.452;11.636;2023-04-06T07:13:18;95797.22;;;1.72;56.27
79285;BME280;68734;50.452;11.636;2023-04-06T07:15:48;95796.34;;;1.58;57.03
79285;BME280;68734;50.452;11.636;2023-04-06T07:18:13;95798.47;;;1.69;57.11
79285;BME280;68734;50.452;11.636;2023-04-06T07:20:42;95806.72;;;1.88;57.57
79285;BME280;68734;50.452;11.636;2023-04-06T07:23:07;95795.50;;;2.06;56.78
79285;BME280;68734;50.452;11.636;2023-04-06T07:25:33;95797.78;;;2.22;55.30
79285;BME280;68734;50.452;11.636;2023-04-06T07:28:01;95799.44;;;2.30;54.50
79285;BME280;68734;50.452;11.636;2023-04-06T07:30:29;95784.06;;;2.38;54.08
79285;BME280;68734;50.452;11.636;2023-04-06T07:32:56;95799.66;;;2.48;54.02
79285;BME280;68734;50.452;11.636;2023-04-06T07:35:25;95805.22;;;2.53;54.23
79285;BME280;68734;50.452;11.636;2023-04-06T07:37:55;95800.28;;;2.50;52.00
79285;BME280;68734;50.452;11.636;2023-04-06T07:40:23;95806.03;;;2.47;51.15
79285;BME280;68734;50.452;11.636;2023-04-06T07:42:49;95795.81;;;2.77;49.62
79285;BME280;68734;50.452;11.636;2023-04-06T07:45:15;95782.66;;;2.89;49.19
79285;BME280;68734;50.452;11.636;2023-04-06T07:47:41;95803.78;;;2.97;47.90
79285;BME280;68734;50.452;11.636;2023-04-06T07:50:07;95798.84;;;3.21;46.85
79285;BME280;68734;50.452;11.636;2023-04-06T07:52:35;95800.25;;;3.30;46.12
79285;BME280;68734;50.452;11.636;2023-04-06T07:55:00;95797.41;;;3.25;46.18
79285;BME280;68734;50.452;11.636;2023-04-06T07:57:26;95793.44;;;3.48;46.91
79285;BME280;68734;50.452;11.636;2023-04-06T07:59:51;95789.06;;;3.60;45.29
79285;BME280;68734;50.452;11.636;2023-04-06T08:02:17;95800.69;;;3.86;45.42
79285;BME280;68734;50.452;11.636;2023-04-06T08:04:45;95791.44;;;3.88;44.16
79285;BME280;68734;50.452;11.636;2023-04-06T08:07:11;95791.78;;;4.05;43.47
79285;BME280;68734;50.452;11.636;2023-04-06T08:09:36;95788.41;;;4.16;42.17
79285;BME280;68734;50.452;11.636;2023-04-06T08:12:02;95792.47;;;4.26;41.41
79285;BME280;68734;50.452;11.636;2023-04-06T08:14:27;95779.06;;;4.32;41.75
79285;BME280;68734;50.452;11.636;2023-04-06T08:16:55;95785.81;;;4.42;42.08
79285;BME280;68734;50.452;11.636;2023-04-06T08:19:21;95779.19;;;4.44;40.51
79285;BME280;68734;50.452;11.636;2023-04-06T08:21:46;95786.56;;;4.49;41.33
79285;BME280;68734;50.452;11.636;2023-04-06T08:24:13;95789.34;;;4.60;39.78
79285;BME280;68734;50.452;11.636;2023-04-06T08:26:39;95788.50;;;4.67;39.88
79285;BME280;68734;50.452;11.636;2023-04-06T08:29:04;95792.38;;;4.71;39.10
79285;BME280;68734;50.452;11.636;2023-04-06T08:31:35;95792.53;;;4.76;38.23
79285;BME280;68734;50.452;11.636;2023-04-06T08:34:01;95795.53;;;4.86;37.85
79285;BME280;68734;50.452;11.636;2023-04-06T08:36:27;95790.59;;;4.90;39.76
79285;BME280;68734;50.452;11.636;2023-04-06T08:38:52;95788.22;;;5.00;38.92
79285;BME280;68734;50.452;11.636;2023-04-06T08:41:19;95784.66;;;5.06;38.26
79285;BME280;68734;50.452;11.636;2023-04-06T08:44:06;95790.78;;;5.13;37.94
79285;BME280;68734;50.452;11.636;2023-04-06T08:46:46;95789.34;;;5.11;36.84
79285;BME280;68734;50.452;11.636;2023-04-06T08:49:16;95784.47;;;5.08;38.21
79285;BME280;68734;50.452;11.636;2023-04-06T08:51:41;95787.97;;;5.27;37.85
79285;BME280;68734;50.452;11.636;2023-04-06T08:54:07;95785.88;;;5.29;37.59
79285;BME280;68734;50.452;11.636;2023-04-06T08:56:36;95789.94;;;5.38;36.49
79285;BME280;68734;50.452;11.636;2023-04-06T08:59:05;95795.28;;;5.38;36.75
79285;BME280;68734;50.452;11.636;2023-04-06T09:01:33;95797.28;;;5.24;37.12
79285;BME280;68734;50.452;11.636;2023-04-06T09:04:02;95801.59;;;5.25;35.66
79285;BME280;68734;50.452;11.636;2023-04-06T09:06:34;95785.38;;;4.95;34.71
79285;BME280;68734;50.452;11.636;2023-04-06T09:08:59;95794.28;;;5.14;38.25
79285;BME280;68734;50.452;11.636;2023-04-06T09:11:24;95787.38;;;5.25;37.30
79285;BME280;68734;50.452;11.636;2023-04-06T09:13:57;95794.34;;;5.07;37.41
79285;BME280;68734;50.452;11.636;2023-04-06T09:16:25;95798.94;;;5.25;36.32
79285;BME280;68734;50.452;11.636;2023-04-06T09:18:51;95791.19;;;5.35;36.49
79285;BME280;68734;50.452;11.636;2023-04-06T09:21:17;95792.03;;;5.54;36.82
79285;BME280;68734;50.452;11.636;2023-04-06T09:23:43;95795.38;;;5.68;36.71
79285;BME280;68734;50.452;11.636;2023-04-06T09:26:14;95791.81;;;5.56;34.76
79285;BME280;68734;50.452;11.636;2023-04-06T09:28:50;95790.09;;;4.99;35.17
79285;BME280;68734;50.452;11.636;2023-04-06T09:31:23;95788.28;;;4.93;35.55
79285;BME280;68734;50.452;11.636;2023-04-06T09:33:52;95791.31;;;5.22;36.53
79285;BME280;68734;50.452;11.636;2023-04-06T09:36:17;95782.41;;;5.47;36.34
79285;BME280;68734;50.452;11.636;2023-04-06T09:41:26;95782.47;;;5.77;35.83
79285;BME280;68734;50.452;11.636;2023-04-06T09:44:11;95768.34;;;5.70;34.35
79285;BME280;68734;50.452;11.636;2023-04-06T09:46:46;95781.97;;;5.50;33.39
79285;BME280;68734;50.452;11.636;2023-04-06T09:49:13;95770.53;;;4.74;34.34
79285;BME280;68734;50.452;11.636;2023-04-06T09:51:46;95779.31;;;4.81;35.25
79285;BME280;68734;50.452;11.636;2023-04-06T09:54:20;95769.50;;;5.18;36.46
79285;BME280;68734;50.452;11.636;2023-04-06T09:56:47;95779.13;;;5.63;37.17
79285;BME280;68734;50.452;11.636;2023-04-06T09:59:27;95766.34;;;5.84;36.35
79285;BME280;68734;50.452;11.636;2023-04-06T10:01:55;95772.88;;;5.88;34.29
79285;BME280;68734;50.452;11.636;2023-04-06T10:06:55;95760.81;;;5.97;33.79
79285;BME280;68734;50.452;11.636;2023-04-06T10:09:25;95761.94;;;6.08;35.40
79285;BME280;68734;50.452;11.636;2023-04-06T10:11:54;95764.56;;;5.96;34.59
79285;BME280;68734;50.452;11.636;2023-04-06T10:14:20;95762.59;;;5.85;33.37
79285;BME280;68734;50.452;11.636;2023-04-06T10:16:48;95765.44;;;5.90;35.71
79285;BME280;68734;50.452;11.636;2023-04-06T10:19:21;95767.38;;;6.01;36.72
79285;BME280;68734;50.452;11.636;2023-04-06T10:21:54;95761.41;;;6.17;35.82
79285;BME280;68734;50.452;11.636;2023-04-06T10:24:23;95761.91;;;6.38;36.71
79285;BME280;68734;50.452;11.636;2023-04-06T10:27:03;95761.06;;;6.26;35.07
79285;BME280;68734;50.452;11.636;2023-04-06T10:29:42;95741.69;;;5.75;35.53
79285;BME280;68734;50.452;11.636;2023-04-06T10:32:08;95758.13;;;6.15;36.90
79285;BME280;68734;50.452;11.636;2023-04-06T10:34:36;95751.75;;;6.28;35.65
79285;BME280;68734;50.452;11.636;2023-04-06T10:37:11;95753.19;;;6.43;32.97
79285;BME280;68734;50.452;11.636;2023-04-06T10:39:45;95748.75;;;6.48;35.17
79285;BME280;68734;50.452;11.636;2023-04-06T10:42:14;95734.28;;;6.49;34.93
79285;BME280;68734;50.452;11.636;2023-04-06T10:44:43;95748.03;;;6.41;32.54
79285;BME280;68734;50.452;11.636;2023-04-06T10:47:16;95739.78;;;6.54;35.72
79285;BME280;68734;50.452;11.636;2023-04-06T10:49:45;95742.38;;;6.73;33.95
79285;BME280;68734;50.452;11.636;2023-04-06T10:52:10;95730.13;;;6.65;33.55
79285;BME280;68734;50.452;11.636;2023-04-06T10:54:41;95723.59;;;6.73;35.13
79285;BME280;68734;50.452;11.636;2023-04-06T10:57:12;95728.63;;;6.81;34.15
79285;BME280;68734;50.452;11.636;2023-04-06T10:59:42;95736.81;;;6.86;32.65
79285;BME280;68734;50.452;11.636;2023-04-06T11:02:08;95736.09;;;6.79;33.00
79285;BME280;68734;50.452;11.636;2023-04-06T11:04:33;95730.25;;;6.82;32.84
79285;BME280;68734;50.452;11.636;2023-04-06T11:06:59;95725.00;;;6.87;32.50
79285;BME280;68734;50.452;11.636;2023-04-06T11:11:50;95723.50;;;7.03;34.05
79285;BME280;68734;50.452;11.636;2023-04-06T11:14:18;95737.03;;;6.96;32.21
79285;BME280;68734;50.452;11.636;2023-04-06T11:16:46;95737.97;;;6.90;31.65
79285;BME280;68734;50.452;11.636;2023-04-06T11:19:13;95712.34;;;6.41;32.60
79285;BME280;68734;50.452;11.636;2023-04-06T11:21:43;95719.09;;;6.43;34.46
79285;BME280;68734;50.452;11.636;2023-04-06T11:29:35;95717.31;;;7.03;33.93
79285;BME280;68734;50.452;11.636;2023-04-06T11:32:06;95716.84;;;7.06;33.23
79285;BME280;68734;50.452;11.636;2023-04-06T11:34:34;95718.81;;;7.22;34.54
79285;BME280;68734;50.452;11.636;2023-04-06T11:37:07;95705.63;;;7.09;32.35
79285;BME280;68734;50.452;11.636;2023-04-06T11:39:54;95709.34;;;7.19;33.08
79285;BME280;68734;50.452;11.636;2023-04-06T11:42:29;95712.16;;;7.36;33.44
79285;BME280;68734;50.452;11.636;2023-04-06T11:44:56;95704.09;;;7.36;30.50
79285;BME280;68734;50.452;11.636;2023-04-06T11:47:37;95686.09;;;7.25;31.35
79285;BME280;68734;50.452;11.636;2023-04-06T11:50:11;95690.72;;;7.42;33.69
79285;BME280;68734;50.452;11.636;2023-04-06T11:52:38;95694.84;;;7.44;30.86
79285;BME280;68734;50.452;11.636;2023-04-06T11:57:39;95693.78;;;7.33;32.25
79285;BME280;68734;50.452;11.636;2023-04-06T12:00:06;95688.56;;;7.03;32.49
79285;BME280;68734;50.452;11.636;2023-04-06T12:02:33;95678.31;;;7.12;32.13
79285;BME280;68734;50.452;11.636;2023-04-06T12:04:58;95686.44;;;7.29;34.06
79285;BME280;68734;50.452;11.636;2023-04-06T12:07:24;95684.50;;;7.01;32.47
79285;BME280;68734;50.452;11.636;2023-04-06T12:09:49;95684.72;;;7.11;33.06
79285;BME280;68734;50.452;11.636;2023-04-06T12:12:17;95676.78;;;7.16;33.00
79285;BME280;68734;50.452;11.636;2023-04-06T12:14:43;95682.00;;;7.34;32.92
79285;BME280;68734;50.452;11.636;2023-04-06T12:17:12;95680.47;;;7.38;33.33
79285;BME280;68734;50.452;11.636;2023-04-06T12:19:38;95682.09;;;7.39;32.61
79285;BME280;68734;50.452;11.636;2023-04-06T12:22:06;95671.66;;;7.55;33.57
79285;BME280;68734;50.452;11.636;2023-04-06T12:24:31;95661.84;;;6.96;30.98
79285;BME280;68734;50.452;11.636;2023-04-06T12:26:56;95673.63;;;7.19;32.45
79285;BME280;68734;50.452;11.636;2023-04-06T12:29:24;95672.31;;;7.33;32.72
79285;BME280;68734;50.452;11.636;2023-04-06T12:31:51;95674.84;;;7.52;31.31
79285;BME280;68734;50.452;11.636;2023-04-06T12:34:18;95671.69;;;7.43;32.00
79285;BME280;68734;50.452;11.636;2023-04-06T12:36:43;95668.00;;;7.32;30.10
79285;BME280;68734;50.452;11.636;2023-04-06T12:39:11;95662.25;;;7.41;30.47
79285;BME280;68734;50.452;11.636;2023-04-06T12:41:37;95661.56;;;7.33;30.23
79285;BME280;68734;50.452;11.636;2023-04-06T12:44:05;95662.94;;;7.48;32.16
79285;BME280;68734;50.452;11.636;2023-04-06T12:46:31;95652.84;;;7.55;32.04
79285;BME280;68734;50.452;11.636;2023-04-06T12:48:56;95647.75;;;7.42;29.85
79285;BME280;68734;50.452;11.636;2023-04-06T12:51:26;95647.63;;;7.48;31.12
79285;BME280;68734;50.452;11.636;2023-04-06T12:53:54;95651.25;;;7.54;29.63
79285;BME280;68734;50.452;11.636;2023-04-06T12:56:20;95642.09;;;7.55;31.82
79285;BME280;68734;50.452;11.636;2023-04-06T12:58:51;95642.88;;;7.67;30.83
79285;BME280;68734;50.452;11.636;2023-04-06T13:01:19;95641.84;;;7.68;31.09
79285;BME280;68734;50.452;11.636;2023-04-06T13:03:45;95644.03;;;7.71;30.65
79285;BME280;68734;50.452;11.636;2023-04-06T13:06:13;95646.75;;;7.59;30.85
79285;BME280;68734;50.452;11.636;2023-04-06T13:08:40;95641.25;;;7.66;31.94
79285;BME280;68734;50.452;11.636;2023-04-06T13:11:08;95645.75;;;7.77;31.49